Terminal Aerodrome Forecast
Issued by NWS

Current Version | Previous Version | Text Only | Print | Product List | Glossary On
Versions: 1 2 3 4 5 6 7 8 9 10 11 12 13 14 15 16 17 18
000
FTUS44 KBMX 142300
TAFTCL
TAF
KTCL 142320Z 1500/1524 35005KT P6SM SCT250
      TEMPO 1511/1513 00000KT 4SM BR
     FM151700 VRB03KT P6SM OVC060=

USA.gov is the U.S. government's official web portal to all federal, state and local government web resources and services.